sensor_id;sensor_type;location;lat;lon;timestamp;temperature;humidity
8914;DHT22;4492;48.736;9.092;2023-04-25T00:00:05;6.70;99.90
8914;DHT22;4492;48.736;9.092;2023-04-25T00:02:33;6.70;99.90
8914;DHT22;4492;48.736;9.092;2023-04-25T00:05:00;6.70;99.90
8914;DHT22;4492;48.736;9.092;2023-04-25T00:07:27;6.70;99.90
8914;DHT22;4492;48.736;9.092;2023-04-25T00:09:53;6.70;99.90
8914;DHT22;4492;48.736;9.092;2023-04-25T00:12:19;6.70;99.90
8914;DHT22;4492;48.736;9.092;2023-04-25T00:14:45;6.70;99.90
8914;DHT22;4492;48.736;9.092;2023-04-25T00:17:11;6.70;99.90
8914;DHT22;4492;48.736;9.092;2023-04-25T00:19:37;6.60;99.90
8914;DHT22;4492;48.736;9.092;2023-04-25T00:22:03;6.70;99.90
8914;DHT22;4492;48.736;9.092;2023-04-25T00:24:29;6.60;99.90
8914;DHT22;4492;48.736;9.092;2023-04-25T00:26:55;6.60;99.90
8914;DHT22;4492;48.736;9.092;2023-04-25T00:29:20;6.70;99.90
8914;DHT22;4492;48.736;9.092;2023-04-25T00:31:46;6.70;99.90
8914;DHT22;4492;48.736;9.092;2023-04-25T00:34:12;6.70;99.90
8914;DHT22;4492;48.736;9.092;2023-04-25T00:36:37;6.60;99.90
8914;DHT22;4492;48.736;9.092;2023-04-25T00:39:03;6.60;99.90
8914;DHT22;4492;48.736;9.092;2023-04-25T00:41:30;6.70;99.90
8914;DHT22;4492;48.736;9.092;2023-04-25T00:43:56;6.70;99.90
8914;DHT22;4492;48.736;9.092;2023-04-25T00:46:23;6.70;99.90
8914;DHT22;4492;48.736;9.092;2023-04-25T00:48:48;6.70;99.90
8914;DHT22;4492;48.736;9.092;2023-04-25T00:51:19;6.60;99.90
8914;DHT22;4492;48.736;9.092;2023-04-25T00:53:45;6.60;99.90
8914;DHT22;4492;48.736;9.092;2023-04-25T00:56:12;6.60;99.90
8914;DHT22;4492;48.736;9.092;2023-04-25T00:58:38;6.60;99.90
8914;DHT22;4492;48.736;9.092;2023-04-25T01:01:06;6.60;99.90
8914;DHT22;4492;48.736;9.092;2023-04-25T01:03:33;6.60;99.90
8914;DHT22;4492;48.736;9.092;2023-04-25T01:06:01;6.60;99.90
8914;DHT22;4492;48.736;9.092;2023-04-25T01:08:28;6.60;99.90
8914;DHT22;4492;48.736;9.092;2023-04-25T01:10:54;6.70;99.90
8914;DHT22;4492;48.736;9.092;2023-04-25T01:13:20;6.70;99.90
8914;DHT22;4492;48.736;9.092;2023-04-25T01:15:47;6.70;99.90
8914;DHT22;4492;48.736;9.092;2023-04-25T01:18:13;6.80;99.90
8914;DHT22;4492;48.736;9.092;2023-04-25T01:20:40;6.70;99.90
8914;DHT22;4492;48.736;9.092;2023-04-25T01:23:07;6.70;99.90
8914;DHT22;4492;48.736;9.092;2023-04-25T01:25:33;6.70;99.90
8914;DHT22;4492;48.736;9.092;2023-04-25T01:28:00;6.60;99.90
8914;DHT22;4492;48.736;9.092;2023-04-25T01:30:26;6.60;99.90
8914;DHT22;4492;48.736;9.092;2023-04-25T01:32:57;6.50;99.90
8914;DHT22;4492;48.736;9.092;2023-04-25T01:35:23;6.50;99.90
8914;DHT22;4492;48.736;9.092;2023-04-25T01:37:50;6.50;99.90
8914;DHT22;4492;48.736;9.092;2023-04-25T01:40:18;6.50;99.90
8914;DHT22;4492;48.736;9.092;2023-04-25T01:42:45;6.40;99.90
8914;DHT22;4492;48.736;9.092;2023-04-25T01:45:11;6.40;99.90
8914;DHT22;4492;48.736;9.092;2023-04-25T01:47:38;6.40;99.90
8914;DHT22;4492;48.736;9.092;2023-04-25T01:50:06;6.40;99.90
8914;DHT22;4492;48.736;9.092;2023-04-25T01:52:35;6.40;99.90
8914;DHT22;4492;48.736;9.092;2023-04-25T01:55:05;6.40;99.90
8914;DHT22;4492;48.736;9.092;2023-04-25T01:57:31;6.30;99.90
8914;DHT22;4492;48.736;9.092;2023-04-25T02:00:02;6.30;99.90
8914;DHT22;4492;48.736;9.092;2023-04-25T02:02:28;6.30;99.90
8914;DHT22;4492;48.736;9.092;2023-04-25T02:04:54;6.20;99.90
8914;DHT22;4492;48.736;9.092;2023-04-25T02:07:20;6.20;99.90
8914;DHT22;4492;48.736;9.092;2023-04-25T02:09:46;6.10;99.90
8914;DHT22;4492;48.736;9.092;2023-04-25T02:12:14;6.10;99.90
8914;DHT22;4492;48.736;9.092;2023-04-25T02:14:43;6.10;99.90
8914;DHT22;4492;48.736;9.092;2023-04-25T02:17:08;6.00;99.90
8914;DHT22;4492;48.736;9.092;2023-04-25T02:19:34;6.00;99.90
8914;DHT22;4492;48.736;9.092;2023-04-25T02:22:00;6.00;99.90
8914;DHT22;4492;48.736;9.092;2023-04-25T02:24:26;5.90;99.90
8914;DHT22;4492;48.736;9.092;2023-04-25T02:26:53;5.90;99.90
8914;DHT22;4492;48.736;9.092;2023-04-25T02:29:21;5.90;99.90
8914;DHT22;4492;48.736;9.092;2023-04-25T02:31:55;5.80;99.90
8914;DHT22;4492;48.736;9.092;2023-04-25T02:34:21;5.80;99.90
8914;DHT22;4492;48.736;9.092;2023-04-25T02:36:48;5.80;99.90
8914;DHT22;4492;48.736;9.092;2023-04-25T02:39:16;5.80;99.90
8914;DHT22;4492;48.736;9.092;2023-04-25T02:41:42;5.70;99.90
8914;DHT22;4492;48.736;9.092;2023-04-25T02:44:13;5.80;99.90
8914;DHT22;4492;48.736;9.092;2023-04-25T02:46:39;5.70;99.90
8914;DHT22;4492;48.736;9.092;2023-04-25T02:49:05;5.70;99.90
8914;DHT22;4492;48.736;9.092;2023-04-25T02:51:30;5.70;99.90
8914;DHT22;4492;48.736;9.092;2023-04-25T02:53:57;5.60;99.90
8914;DHT22;4492;48.736;9.092;2023-04-25T02:56:23;5.60;99.90
8914;DHT22;4492;48.736;9.092;2023-04-25T02:58:48;5.40;99.90
8914;DHT22;4492;48.736;9.092;2023-04-25T03:01:14;5.60;99.90
8914;DHT22;4492;48.736;9.092;2023-04-25T03:03:42;5.60;99.90
8914;DHT22;4492;48.736;9.092;2023-04-25T03:06:08;5.70;99.90
8914;DHT22;4492;48.736;9.092;2023-04-25T03:08:34;5.70;99.90
8914;DHT22;4492;48.736;9.092;2023-04-25T03:11:00;5.80;99.90
8914;DHT22;4492;48.736;9.092;2023-04-25T03:13:26;5.90;99.90
8914;DHT22;4492;48.736;9.092;2023-04-25T03:15:52;5.90;99.90
8914;DHT22;4492;48.736;9.092;2023-04-25T03:18:18;5.90;99.90
8914;DHT22;4492;48.736;9.092;2023-04-25T03:20:44;5.90;99.90
8914;DHT22;4492;48.736;9.092;2023-04-25T03:23:10;5.90;99.90
8914;DHT22;4492;48.736;9.092;2023-04-25T03:25:35;5.90;99.90
8914;DHT22;4492;48.736;9.092;2023-04-25T03:28:03;5.90;99.90
8914;DHT22;4492;48.736;9.092;2023-04-25T03:30:29;5.90;99.90
8914;DHT22;4492;48.736;9.092;2023-04-25T03:32:55;5.90;99.90
8914;DHT22;4492;48.736;9.092;2023-04-25T03:35:23;5.80;99.90
8914;DHT22;4492;48.736;9.092;2023-04-25T03:37:49;5.80;99.90
8914;DHT22;4492;48.736;9.092;2023-04-25T03:40:15;5.80;99.90
8914;DHT22;4492;48.736;9.092;2023-04-25T03:42:40;5.80;99.90
8914;DHT22;4492;48.736;9.092;2023-04-25T03:45:07;5.70;99.90
8914;DHT22;4492;48.736;9.092;2023-04-25T03:47:33;5.70;99.90
8914;DHT22;4492;48.736;9.092;2023-04-25T03:49:58;5.80;99.90
8914;DHT22;4492;48.736;9.092;2023-04-25T03:52:27;5.80;99.90
8914;DHT22;4492;48.736;9.092;2023-04-25T03:54:52;5.80;99.90
8914;DHT22;4492;48.736;9.092;2023-04-25T03:57:18;5.80;99.90
8914;DHT22;4492;48.736;9.092;2023-04-25T03:59:44;5.80;99.90
8914;DHT22;4492;48.736;9.092;2023-04-25T04:02:10;5.80;99.90
8914;DHT22;4492;48.736;9.092;2023-04-25T04:04:36;5.80;99.90
8914;DHT22;4492;48.736;9.092;2023-04-25T04:07:02;5.80;99.90
8914;DHT22;4492;48.736;9.092;2023-04-25T04:09:27;5.80;99.90
8914;DHT22;4492;48.736;9.092;2023-04-25T04:11:53;5.80;99.90
8914;DHT22;4492;48.736;9.092;2023-04-25T04:14:19;5.70;99.90
8914;DHT22;4492;48.736;9.092;2023-04-25T04:16:45;5.70;99.90
8914;DHT22;4492;48.736;9.092;2023-04-25T04:19:11;5.60;99.90
8914;DHT22;4492;48.736;9.092;2023-04-25T04:21:40;5.50;99.90
8914;DHT22;4492;48.736;9.092;2023-04-25T04:24:06;5.50;99.90
8914;DHT22;4492;48.736;9.092;2023-04-25T04:26:38;5.40;99.90
8914;DHT22;4492;48.736;9.092;2023-04-25T04:29:04;5.50;99.90
8914;DHT22;4492;48.736;9.092;2023-04-25T04:31:30;5.50;99.90
8914;DHT22;4492;48.736;9.092;2023-04-25T04:33:57;5.50;99.90
8914;DHT22;4492;48.736;9.092;2023-04-25T04:36:23;5.50;99.90
8914;DHT22;4492;48.736;9.092;2023-04-25T04:38:51;5.60;99.90
8914;DHT22;4492;48.736;9.092;2023-04-25T04:41:18;5.60;99.90
8914;DHT22;4492;48.736;9.092;2023-04-25T04:43:45;5.60;99.90
8914;DHT22;4492;48.736;9.092;2023-04-25T04:46:10;5.60;99.90
8914;DHT22;4492;48.736;9.092;2023-04-25T04:48:38;5.70;99.90
8914;DHT22;4492;48.736;9.092;2023-04-25T04:51:05;5.70;99.90
8914;DHT22;4492;48.736;9.092;2023-04-25T04:53:32;5.80;99.90
8914;DHT22;4492;48.736;9.092;2023-04-25T04:55:57;5.80;99.90
8914;DHT22;4492;48.736;9.092;2023-04-25T04:58:23;5.90;99.90
8914;DHT22;4492;48.736;9.092;2023-04-25T05:00:49;5.90;99.90
8914;DHT22;4492;48.736;9.092;2023-04-25T05:03:15;6.00;99.90
8914;DHT22;4492;48.736;9.092;2023-04-25T05:05:41;6.00;99.90
8914;DHT22;4492;48.736;9.092;2023-04-25T05:08:07;6.10;99.90
8914;DHT22;4492;48.736;9.092;2023-04-25T05:10:33;6.10;99.90
8914;DHT22;4492;48.736;9.092;2023-04-25T05:12:58;6.20;99.90
8914;DHT22;4492;48.736;9.092;2023-04-25T05:15:24;6.30;99.90
8914;DHT22;4492;48.736;9.092;2023-04-25T05:17:50;6.30;99.90
8914;DHT22;4492;48.736;9.092;2023-04-25T05:20:16;6.30;99.90
8914;DHT22;4492;48.736;9.092;2023-04-25T05:22:43;6.40;99.90
8914;DHT22;4492;48.736;9.092;2023-04-25T05:25:09;6.40;99.90
8914;DHT22;4492;48.736;9.092;2023-04-25T05:27:35;6.50;99.90
8914;DHT22;4492;48.736;9.092;2023-04-25T05:30:01;6.60;99.90
8914;DHT22;4492;48.736;9.092;2023-04-25T05:32:27;6.60;99.90
8914;DHT22;4492;48.736;9.092;2023-04-25T05:34:53;6.70;99.90
8914;DHT22;4492;48.736;9.092;2023-04-25T05:37:18;6.70;99.90
8914;DHT22;4492;48.736;9.092;2023-04-25T05:39:44;6.70;99.90
8914;DHT22;4492;48.736;9.092;2023-04-25T05:42:10;6.80;99.90
8914;DHT22;4492;48.736;9.092;2023-04-25T05:44:36;6.90;99.90
8914;DHT22;4492;48.736;9.092;2023-04-25T05:47:01;6.90;99.90
8914;DHT22;4492;48.736;9.092;2023-04-25T05:49:30;6.90;99.90
8914;DHT22;4492;48.736;9.092;2023-04-25T05:51:56;6.90;99.90
8914;DHT22;4492;48.736;9.092;2023-04-25T05:54:21;6.90;99.90
8914;DHT22;4492;48.736;9.092;2023-04-25T05:56:46;6.90;99.90
8914;DHT22;4492;48.736;9.092;2023-04-25T05:59:12;6.80;99.90
8914;DHT22;4492;48.736;9.092;2023-04-25T06:01:37;6.70;99.90
8914;DHT22;4492;48.736;9.092;2023-04-25T06:04:03;6.70;99.90
8914;DHT22;4492;48.736;9.092;2023-04-25T06:06:29;6.60;99.90
8914;DHT22;4492;48.736;9.092;2023-04-25T06:08:54;6.60;99.90
8914;DHT22;4492;48.736;9.092;2023-04-25T06:11:20;6.50;99.90
8914;DHT22;4492;48.736;9.092;2023-04-25T06:13:46;6.50;99.90
8914;DHT22;4492;48.736;9.092;2023-04-25T06:16:11;6.50;99.90
8914;DHT22;4492;48.736;9.092;2023-04-25T06:18:37;6.50;99.90
8914;DHT22;4492;48.736;9.092;2023-04-25T06:21:02;6.40;99.90
8914;DHT22;4492;48.736;9.092;2023-04-25T06:23:28;6.50;99.90
8914;DHT22;4492;48.736;9.092;2023-04-25T06:25:53;6.50;99.90
8914;DHT22;4492;48.736;9.092;2023-04-25T06:28:19;6.50;99.90
8914;DHT22;4492;48.736;9.092;2023-04-25T06:30:44;6.50;99.90
8914;DHT22;4492;48.736;9.092;2023-04-25T06:33:10;6.60;99.90
8914;DHT22;4492;48.736;9.092;2023-04-25T06:35:35;6.60;99.90
8914;DHT22;4492;48.736;9.092;2023-04-25T06:38:01;6.60;99.90
8914;DHT22;4492;48.736;9.092;2023-04-25T06:40:26;6.70;99.90
8914;DHT22;4492;48.736;9.092;2023-04-25T06:42:52;6.70;99.90
8914;DHT22;4492;48.736;9.092;2023-04-25T06:45:17;6.70;99.90
8914;DHT22;4492;48.736;9.092;2023-04-25T06:47:43;6.70;99.90
8914;DHT22;4492;48.736;9.092;2023-04-25T06:50:09;6.70;99.90
8914;DHT22;4492;48.736;9.092;2023-04-25T06:52:34;6.60;99.90
8914;DHT22;4492;48.736;9.092;2023-04-25T06:55:00;6.60;99.90
8914;DHT22;4492;48.736;9.092;2023-04-25T06:57:25;6.60;99.90
8914;DHT22;4492;48.736;9.092;2023-04-25T06:59:51;6.60;99.90
8914;DHT22;4492;48.736;9.092;2023-04-25T07:02:17;6.60;99.90
8914;DHT22;4492;48.736;9.092;2023-04-25T07:04:42;6.60;99.90
8914;DHT22;4492;48.736;9.092;2023-04-25T07:07:08;6.70;99.90
8914;DHT22;4492;48.736;9.092;2023-04-25T07:09:34;6.70;99.90
8914;DHT22;4492;48.736;9.092;2023-04-25T07:12:00;6.70;99.90
8914;DHT22;4492;48.736;9.092;2023-04-25T07:14:27;6.60;99.90
8914;DHT22;4492;48.736;9.092;2023-04-25T07:16:53;6.70;99.90
8914;DHT22;4492;48.736;9.092;2023-04-25T07:19:18;6.70;99.90
8914;DHT22;4492;48.736;9.092;2023-04-25T07:21:44;6.70;99.90
8914;DHT22;4492;48.736;9.092;2023-04-25T07:24:09;6.60;99.90
8914;DHT22;4492;48.736;9.092;2023-04-25T07:26:35;6.60;99.90
8914;DHT22;4492;48.736;9.092;2023-04-25T07:29:01;6.60;99.90
8914;DHT22;4492;48.736;9.092;2023-04-25T07:31:26;6.60;99.90
8914;DHT22;4492;48.736;9.092;2023-04-25T07:33:52;6.60;99.90
8914;DHT22;4492;48.736;9.092;2023-04-25T07:36:18;6.60;99.90
8914;DHT22;4492;48.736;9.092;2023-04-25T07:38:43;6.60;99.90
8914;DHT22;4492;48.736;9.092;2023-04-25T07:41:09;6.60;99.90
8914;DHT22;4492;48.736;9.092;2023-04-25T07:43:34;6.60;99.90
8914;DHT22;4492;48.736;9.092;2023-04-25T07:46:00;6.60;99.90
8914;DHT22;4492;48.736;9.092;2023-04-25T07:48:26;6.50;99.90
8914;DHT22;4492;48.736;9.092;2023-04-25T07:50:51;6.50;99.90
8914;DHT22;4492;48.736;9.092;2023-04-25T07:53:20;6.60;99.90
8914;DHT22;4492;48.736;9.092;2023-04-25T07:55:45;6.50;99.90
8914;DHT22;4492;48.736;9.092;2023-04-25T07:58:11;6.60;99.90
8914;DHT22;4492;48.736;9.092;2023-04-25T08:00:37;6.60;99.90
8914;DHT22;4492;48.736;9.092;2023-04-25T08:03:03;6.60;99.90
8914;DHT22;4492;48.736;9.092;2023-04-25T08:05:29;6.60;99.90
8914;DHT22;4492;48.736;9.092;2023-04-25T08:07:54;6.70;99.90
8914;DHT22;4492;48.736;9.092;2023-04-25T08:10:22;6.70;99.90
8914;DHT22;4492;48.736;9.092;2023-04-25T08:12:48;6.70;99.90
8914;DHT22;4492;48.736;9.092;2023-04-25T08:15:14;6.70;99.90
8914;DHT22;4492;48.736;9.092;2023-04-25T08:17:40;6.80;99.90
8914;DHT22;4492;48.736;9.092;2023-04-25T08:20:06;6.80;99.90
8914;DHT22;4492;48.736;9.092;2023-04-25T08:22:32;6.80;99.90
8914;DHT22;4492;48.736;9.092;2023-04-25T08:24:58;6.90;99.90
8914;DHT22;4492;48.736;9.092;2023-04-25T08:27:23;6.90;99.90
8914;DHT22;4492;48.736;9.092;2023-04-25T08:29:51;7.00;99.90
8914;DHT22;4492;48.736;9.092;2023-04-25T08:32:18;6.90;99.90
8914;DHT22;4492;48.736;9.092;2023-04-25T08:34:46;7.00;99.90
8914;DHT22;4492;48.736;9.092;2023-04-25T08:37:15;7.00;99.90
8914;DHT22;4492;48.736;9.092;2023-04-25T08:39:40;7.00;99.90
8914;DHT22;4492;48.736;9.092;2023-04-25T08:42:07;7.00;99.90
8914;DHT22;4492;48.736;9.092;2023-04-25T08:44:36;7.00;99.90
8914;DHT22;4492;48.736;9.092;2023-04-25T08:47:03;7.10;99.90
8914;DHT22;4492;48.736;9.092;2023-04-25T08:49:34;7.10;99.90
8914;DHT22;4492;48.736;9.092;2023-04-25T08:52:01;7.10;99.90
8914;DHT22;4492;48.736;9.092;2023-04-25T08:54:28;7.20;99.90
8914;DHT22;4492;48.736;9.092;2023-04-25T08:56:56;7.20;99.90
8914;DHT22;4492;48.736;9.092;2023-04-25T08:59:23;7.20;99.90
8914;DHT22;4492;48.736;9.092;2023-04-25T09:01:49;7.20;99.90
8914;DHT22;4492;48.736;9.092;2023-04-25T09:04:15;7.30;99.90
8914;DHT22;4492;48.736;9.092;2023-04-25T09:06:41;7.30;99.90
8914;DHT22;4492;48.736;9.092;2023-04-25T09:09:08;7.30;99.90
8914;DHT22;4492;48.736;9.092;2023-04-25T09:11:36;7.30;99.90
8914;DHT22;4492;48.736;9.092;2023-04-25T09:14:16;7.30;99.90
8914;DHT22;4492;48.736;9.092;2023-04-25T09:19:31;7.30;99.90
8914;DHT22;4492;48.736;9.092;2023-04-25T09:21:59;7.20;99.90
8914;DHT22;4492;48.736;9.092;2023-04-25T09:27:12;7.20;99.90
8914;DHT22;4492;48.736;9.092;2023-04-25T09:29:39;7.20;99.90
8914;DHT22;4492;48.736;9.092;2023-04-25T09:32:26;7.20;99.90
8914;DHT22;4492;48.736;9.092;2023-04-25T09:34:53;7.30;99.90
8914;DHT22;4492;48.736;9.092;2023-04-25T09:37:29;7.20;99.90
8914;DHT22;4492;48.736;9.092;2023-04-25T09:39:57;7.10;99.90
8914;DHT22;4492;48.736;9.092;2023-04-25T09:42:26;7.10;99.90
8914;DHT22;4492;48.736;9.092;2023-04-25T09:44:54;7.00;99.90
8914;DHT22;4492;48.736;9.092;2023-04-25T09:47:20;7.00;99.90
8914;DHT22;4492;48.736;9.092;2023-04-25T09:49:48;6.70;99.90
8914;DHT22;4492;48.736;9.092;2023-04-25T09:52:19;6.50;99.90
8914;DHT22;4492;48.736;9.092;2023-04-25T09:54:45;6.40;99.90
8914;DHT22;4492;48.736;9.092;2023-04-25T09:57:22;6.30;99.90
8914;DHT22;4492;48.736;9.092;2023-04-25T09:59:53;6.40;99.90
8914;DHT22;4492;48.736;9.092;2023-04-25T10:02:24;6.50;99.90
8914;DHT22;4492;48.736;9.092;2023-04-25T10:04:51;6.60;99.90
8914;DHT22;4492;48.736;9.092;2023-04-25T10:07:20;6.80;99.90
8914;DHT22;4492;48.736;9.092;2023-04-25T10:09:49;7.00;99.90
8914;DHT22;4492;48.736;9.092;2023-04-25T10:12:18;7.20;99.90
8914;DHT22;4492;48.736;9.092;2023-04-25T10:14:44;7.50;99.90
8914;DHT22;4492;48.736;9.092;2023-04-25T10:17:10;7.70;99.90
8914;DHT22;4492;48.736;9.092;2023-04-25T10:19:37;7.90;99.90
8914;DHT22;4492;48.736;9.092;2023-04-25T10:22:11;8.00;99.90
8914;DHT22;4492;48.736;9.092;2023-04-25T10:24:39;8.10;99.90
8914;DHT22;4492;48.736;9.092;2023-04-25T10:27:06;8.10;99.90
8914;DHT22;4492;48.736;9.092;2023-04-25T10:29:32;8.10;99.90
8914;DHT22;4492;48.736;9.092;2023-04-25T10:31:58;8.10;99.90
8914;DHT22;4492;48.736;9.092;2023-04-25T10:34:37;8.10;99.90
8914;DHT22;4492;48.736;9.092;2023-04-25T10:37:03;8.10;99.90
8914;DHT22;4492;48.736;9.092;2023-04-25T10:39:29;7.90;99.90
8914;DHT22;4492;48.736;9.092;2023-04-25T10:41:58;7.80;99.90
8914;DHT22;4492;48.736;9.092;2023-04-25T10:44:28;7.70;99.90
8914;DHT22;4492;48.736;9.092;2023-04-25T10:46:59;7.70;99.90
8914;DHT22;4492;48.736;9.092;2023-04-25T10:49:36;7.60;99.90
8914;DHT22;4492;48.736;9.092;2023-04-25T10:54:42;7.40;99.90
8914;DHT22;4492;48.736;9.092;2023-04-25T10:57:26;7.50;99.90
8914;DHT22;4492;48.736;9.092;2023-04-25T10:59:53;7.50;99.90
8914;DHT22;4492;48.736;9.092;2023-04-25T11:02:19;7.50;99.90
8914;DHT22;4492;48.736;9.092;2023-04-25T11:04:45;7.40;99.90
8914;DHT22;4492;48.736;9.092;2023-04-25T11:07:51;7.20;99.90
8914;DHT22;4492;48.736;9.092;2023-04-25T11:10:16;6.90;99.90
8914;DHT22;4492;48.736;9.092;2023-04-25T11:12:41;6.70;99.90
8914;DHT22;4492;48.736;9.092;2023-04-25T11:15:08;6.60;99.90
8914;DHT22;4492;48.736;9.092;2023-04-25T11:17:34;6.40;99.90
8914;DHT22;4492;48.736;9.092;2023-04-25T11:20:00;6.30;99.90
8914;DHT22;4492;48.736;9.092;2023-04-25T11:22:29;6.30;99.90
8914;DHT22;4492;48.736;9.092;2023-04-25T11:24:55;6.30;99.90
8914;DHT22;4492;48.736;9.092;2023-04-25T11:27:21;6.40;99.90
8914;DHT22;4492;48.736;9.092;2023-04-25T11:29:47;6.40;99.90
8914;DHT22;4492;48.736;9.092;2023-04-25T11:32:17;6.50;99.90
8914;DHT22;4492;48.736;9.092;2023-04-25T11:34:44;6.60;99.90
8914;DHT22;4492;48.736;9.092;2023-04-25T11:37:14;6.70;99.90
8914;DHT22;4492;48.736;9.092;2023-04-25T11:39:43;6.80;99.90
8914;DHT22;4492;48.736;9.092;2023-04-25T11:42:10;7.00;99.90
8914;DHT22;4492;48.736;9.092;2023-04-25T11:44:38;7.30;99.90
8914;DHT22;4492;48.736;9.092;2023-04-25T11:47:05;7.50;99.90
8914;DHT22;4492;48.736;9.092;2023-04-25T11:49:31;7.80;99.90
8914;DHT22;4492;48.736;9.092;2023-04-25T11:51:57;7.90;99.90
8914;DHT22;4492;48.736;9.092;2023-04-25T11:54:23;8.00;99.90
8914;DHT22;4492;48.736;9.092;2023-04-25T11:56:49;7.90;99.90
8914;DHT22;4492;48.736;9.092;2023-04-25T11:59:14;7.80;99.90
8914;DHT22;4492;48.736;9.092;2023-04-25T12:01:49;7.90;99.90
8914;DHT22;4492;48.736;9.092;2023-04-25T12:04:25;7.90;99.90
8914;DHT22;4492;48.736;9.092;2023-04-25T12:06:54;7.70;99.90
8914;DHT22;4492;48.736;9.092;2023-04-25T12:09:27;7.50;99.90
8914;DHT22;4492;48.736;9.092;2023-04-25T12:11:54;7.40;99.90
8914;DHT22;4492;48.736;9.092;2023-04-25T12:14:28;7.40;99.90
8914;DHT22;4492;48.736;9.092;2023-04-25T12:16:56;7.50;99.90
8914;DHT22;4492;48.736;9.092;2023-04-25T12:19:23;7.70;99.90
8914;DHT22;4492;48.736;9.092;2023-04-25T12:21:49;7.90;99.90
8914;DHT22;4492;48.736;9.092;2023-04-25T12:24:26;8.20;99.90
8914;DHT22;4492;48.736;9.092;2023-04-25T12:26:53;8.30;99.90
8914;DHT22;4492;48.736;9.092;2023-04-25T12:29:24;8.40;99.90
8914;DHT22;4492;48.736;9.092;2023-04-25T12:31:52;8.50;99.90
8914;DHT22;4492;48.736;9.092;2023-04-25T12:34:19;8.70;99.90
8914;DHT22;4492;48.736;9.092;2023-04-25T12:36:45;8.90;99.90
8914;DHT22;4492;48.736;9.092;2023-04-25T12:39:18;9.00;99.90
8914;DHT22;4492;48.736;9.092;2023-04-25T12:41:45;9.10;99.90
8914;DHT22;4492;48.736;9.092;2023-04-25T12:44:12;9.20;99.90
8914;DHT22;4492;48.736;9.092;2023-04-25T12:46:38;9.30;99.90
8914;DHT22;4492;48.736;9.092;2023-04-25T12:49:04;9.50;99.90
8914;DHT22;4492;48.736;9.092;2023-04-25T12:51:34;9.70;99.90
8914;DHT22;4492;48.736;9.092;2023-04-25T12:54:01;9.80;99.90
8914;DHT22;4492;48.736;9.092;2023-04-25T12:56:28;9.90;99.90
8914;DHT22;4492;48.736;9.092;2023-04-25T12:58:54;10.00;99.90
8914;DHT22;4492;48.736;9.092;2023-04-25T13:01:21;10.20;99.90
8914;DHT22;4492;48.736;9.092;2023-04-25T13:03:47;10.50;99.90
8914;DHT22;4492;48.736;9.092;2023-04-25T13:06:13;10.50;99.90
8914;DHT22;4492;48.736;9.092;2023-04-25T13:08:39;10.60;99.90
8914;DHT22;4492;48.736;9.092;2023-04-25T13:11:06;10.50;99.90
8914;DHT22;4492;48.736;9.092;2023-04-25T13:13:32;10.40;99.90
8914;DHT22;4492;48.736;9.092;2023-04-25T13:16:00;10.50;99.90
8914;DHT22;4492;48.736;9.092;2023-04-25T13:18:26;10.50;99.90
8914;DHT22;4492;48.736;9.092;2023-04-25T13:20:55;10.70;99.90
8914;DHT22;4492;48.736;9.092;2023-04-25T13:23:22;10.90;99.90
8914;DHT22;4492;48.736;9.092;2023-04-25T13:25:47;11.10;99.90
8914;DHT22;4492;48.736;9.092;2023-04-25T13:28:13;11.30;99.90
8914;DHT22;4492;48.736;9.092;2023-04-25T13:30:39;11.40;99.90
8914;DHT22;4492;48.736;9.092;2023-04-25T13:33:05;11.30;99.90
8914;DHT22;4492;48.736;9.092;2023-04-25T13:35:32;11.10;99.90
8914;DHT22;4492;48.736;9.092;2023-04-25T13:37:58;11.00;99.90
8914;DHT22;4492;48.736;9.092;2023-04-25T13:40:24;11.00;99.90
8914;DHT22;4492;48.736;9.092;2023-04-25T13:42:50;10.70;99.90
8914;DHT22;4492;48.736;9.092;2023-04-25T13:45:16;10.40;99.90
8914;DHT22;4492;48.736;9.092;2023-04-25T13:47:42;9.90;99.90
8914;DHT22;4492;48.736;9.092;2023-04-25T13:50:08;9.70;99.90
8914;DHT22;4492;48.736;9.092;2023-04-25T13:52:35;9.40;99.90
8914;DHT22;4492;48.736;9.092;2023-04-25T13:55:01;9.20;99.90
8914;DHT22;4492;48.736;9.092;2023-04-25T13:57:30;9.20;99.90
8914;DHT22;4492;48.736;9.092;2023-04-25T13:59:55;9.40;99.90
8914;DHT22;4492;48.736;9.092;2023-04-25T14:02:21;9.80;99.90
8914;DHT22;4492;48.736;9.092;2023-04-25T14:04:47;10.10;99.90
8914;DHT22;4492;48.736;9.092;2023-04-25T14:07:13;10.30;99.90
8914;DHT22;4492;48.736;9.092;2023-04-25T14:09:41;10.40;99.90
8914;DHT22;4492;48.736;9.092;2023-04-25T14:12:07;10.60;99.90
8914;DHT22;4492;48.736;9.092;2023-04-25T14:14:33;10.80;99.90
8914;DHT22;4492;48.736;9.092;2023-04-25T14:16:58;11.20;99.90
8914;DHT22;4492;48.736;9.092;2023-04-25T14:19:24;11.20;99.90
8914;DHT22;4492;48.736;9.092;2023-04-25T14:21:50;11.10;99.90
8914;DHT22;4492;48.736;9.092;2023-04-25T14:24:15;11.00;99.90
8914;DHT22;4492;48.736;9.092;2023-04-25T14:26:41;11.00;99.90
8914;DHT22;4492;48.736;9.092;2023-04-25T14:29:08;10.90;99.90
8914;DHT22;4492;48.736;9.092;2023-04-25T14:31:37;10.80;99.90
8914;DHT22;4492;48.736;9.092;2023-04-25T14:34:03;10.70;99.90
8914;DHT22;4492;48.736;9.092;2023-04-25T14:36:29;10.80;99.90
8914;DHT22;4492;48.736;9.092;2023-04-25T14:38:56;10.80;99.90
8914;DHT22;4492;48.736;9.092;2023-04-25T14:41:22;10.90;99.90
8914;DHT22;4492;48.736;9.092;2023-04-25T14:43:48;10.90;99.90
8914;DHT22;4492;48.736;9.092;2023-04-25T14:46:14;10.90;99.90
8914;DHT22;4492;48.736;9.092;2023-04-25T14:48:40;10.90;99.90
8914;DHT22;4492;48.736;9.092;2023-04-25T14:51:05;11.10;99.90
8914;DHT22;4492;48.736;9.092;2023-04-25T14:53:31;11.40;99.90
8914;DHT22;4492;48.736;9.092;2023-04-25T14:55:57;11.60;99.90
8914;DHT22;4492;48.736;9.092;2023-04-25T14:58:23;11.90;99.10
8914;DHT22;4492;48.736;9.092;2023-04-25T15:00:49;12.10;98.20
8914;DHT22;4492;48.736;9.092;2023-04-25T15:03:16;12.20;98.60
8914;DHT22;4492;48.736;9.092;2023-04-25T15:05:42;12.30;98.80
8914;DHT22;4492;48.736;9.092;2023-04-25T15:08:09;12.40;98.80
8914;DHT22;4492;48.736;9.092;2023-04-25T15:10:36;12.50;98.20
8914;DHT22;4492;48.736;9.092;2023-04-25T15:13:01;12.30;98.00
8914;DHT22;4492;48.736;9.092;2023-04-25T15:15:28;12.00;97.50
8914;DHT22;4492;48.736;9.092;2023-04-25T15:17:54;12.10;98.00
8914;DHT22;4492;48.736;9.092;2023-04-25T15:20:21;12.10;96.80
8914;DHT22;4492;48.736;9.092;2023-04-25T15:22:47;12.00;97.20
8914;DHT22;4492;48.736;9.092;2023-04-25T15:25:14;11.80;97.30
8914;DHT22;4492;48.736;9.092;2023-04-25T15:27:41;11.70;97.40
8914;DHT22;4492;48.736;9.092;2023-04-25T15:30:13;11.70;96.50
8914;DHT22;4492;48.736;9.092;2023-04-25T15:32:43;11.60;97.20
8914;DHT22;4492;48.736;9.092;2023-04-25T15:35:10;11.70;96.80
8914;DHT22;4492;48.736;9.092;2023-04-25T15:37:37;11.70;96.60
8914;DHT22;4492;48.736;9.092;2023-04-25T15:40:14;11.60;97.00
8914;DHT22;4492;48.736;9.092;2023-04-25T15:42:50;11.40;98.00
8914;DHT22;4492;48.736;9.092;2023-04-25T15:45:21;11.20;97.70
8914;DHT22;4492;48.736;9.092;2023-04-25T15:47:49;10.90;98.20
8914;DHT22;4492;48.736;9.092;2023-04-25T15:50:15;10.70;98.60
8914;DHT22;4492;48.736;9.092;2023-04-25T15:52:41;10.50;98.50
8914;DHT22;4492;48.736;9.092;2023-04-25T15:55:08;10.40;99.10
8914;DHT22;4492;48.736;9.092;2023-04-25T15:57:35;10.50;99.40
8914;DHT22;4492;48.736;9.092;2023-04-25T16:00:02;10.50;99.00
8914;DHT22;4492;48.736;9.092;2023-04-25T16:02:38;10.40;99.30
8914;DHT22;4492;48.736;9.092;2023-04-25T16:05:04;10.40;99.90
8914;DHT22;4492;48.736;9.092;2023-04-25T16:07:30;10.30;99.90
8914;DHT22;4492;48.736;9.092;2023-04-25T16:09:56;10.20;99.90
8914;DHT22;4492;48.736;9.092;2023-04-25T16:12:22;10.00;99.90
8914;DHT22;4492;48.736;9.092;2023-04-25T16:14:47;9.90;99.90
8914;DHT22;4492;48.736;9.092;2023-04-25T16:17:15;9.90;99.90
8914;DHT22;4492;48.736;9.092;2023-04-25T16:19:40;9.90;99.90